createdAt,value
2017-08-02T00:00:11.213Z,56.60
2017-08-02T00:02:38.674Z,56.60
2017-08-02T00:05:06.154Z,56.60
2017-08-02T00:07:33.641Z,56.60
2017-08-02T00:10:01.141Z,56.60
2017-08-02T00:12:28.599Z,56.60
2017-08-02T00:14:56.078Z,56.60
2017-08-02T00:17:23.561Z,56.70
2017-08-02T00:19:51.101Z,56.60
2017-08-02T00:22:18.585Z,56.70
2017-08-02T00:24:46.047Z,56.70
2017-08-02T00:27:13.542Z,56.70
2017-08-02T00:29:40.999Z,56.70
2017-08-02T00:32:08.453Z,56.70
2017-08-02T00:34:35.955Z,56.70
2017-08-02T00:37:03.414Z,56.80
2017-08-02T00:39:30.869Z,56.90
2017-08-02T00:41:58.458Z,56.90
2017-08-02T00:44:25.943Z,56.90
2017-08-02T00:46:53.390Z,56.80
2017-08-02T00:49:20.910Z,57.00
2017-08-02T00:51:48.364Z,57.10
2017-08-02T00:54:15.826Z,57.30
2017-08-02T00:56:43.309Z,57.40
2017-08-02T00:59:10.772Z,57.50
2017-08-02T01:01:38.244Z,57.50
2017-08-02T01:04:05.740Z,57.60
2017-08-02T01:06:33.226Z,57.70
2017-08-02T01:09:00.689Z,57.80
2017-08-02T01:11:28.155Z,57.90
2017-08-02T01:13:55.663Z,58.00
2017-08-02T01:16:23.141Z,58.20
2017-08-02T01:18:50.723Z,58.20
2017-08-02T01:21:18.174Z,58.30
2017-08-02T01:23:45.643Z,58.30
2017-08-02T01:26:13.142Z,58.40
2017-08-02T01:28:40.622Z,58.40
2017-08-02T01:31:08.086Z,58.40
2017-08-02T01:33:35.587Z,58.40
2017-08-02T01:36:03.815Z,58.50
2017-08-02T01:38:31.278Z,58.40
2017-08-02T01:40:58.754Z,58.30
2017-08-02T01:43:26.206Z,58.40
2017-08-02T01:45:53.709Z,58.50
2017-08-02T01:48:21.435Z,58.40
2017-08-02T01:50:48.890Z,58.50
2017-08-02T01:53:16.818Z,58.60
2017-08-02T01:55:44.266Z,58.70
2017-08-02T01:58:11.717Z,58.70
2017-08-02T02:00:39.211Z,58.70
2017-08-02T02:03:06.674Z,58.80
2017-08-02T02:05:34.142Z,58.90
2017-08-02T02:08:01.628Z,58.90
2017-08-02T02:10:29.085Z,59.00
2017-08-02T02:12:56.533Z,59.00
2017-08-02T02:15:24.017Z,59.10
2017-08-02T02:17:52.238Z,59.00
2017-08-02T02:20:19.749Z,59.10
2017-08-02T02:22:47.202Z,59.00
2017-08-02T02:25:15.426Z,59.10
2017-08-02T02:27:42.906Z,59.10
2017-08-02T02:30:10.363Z,59.10
2017-08-02T02:32:37.863Z,59.10
2017-08-02T02:35:06.082Z,59.30
2017-08-02T02:37:33.543Z,59.30
2017-08-02T02:40:01.131Z,59.40
2017-08-02T02:42:28.660Z,59.60
2017-08-02T02:44:56.117Z,59.60
2017-08-02T02:47:23.617Z,59.70
2017-08-02T02:49:51.074Z,59.70
2017-08-02T02:52:18.533Z,59.70
2017-08-02T02:54:46.789Z,60.30
2017-08-02T02:57:14.260Z,59.90
2017-08-02T02:59:41.722Z,59.80
2017-08-02T03:02:09.202Z,59.90
2017-08-02T03:04:37.418Z,60.00
2017-08-02T03:07:04.921Z,60.00
2017-08-02T03:09:32.389Z,59.90
2017-08-02T03:11:59.861Z,59.90
2017-08-02T03:14:27.323Z,59.90
2017-08-02T03:16:54.810Z,59.90
2017-08-02T03:19:22.270Z,59.80
2017-08-02T03:21:49.753Z,59.80
2017-08-02T03:24:17.229Z,59.80
2017-08-02T03:26:45.483Z,60.40
2017-08-02T03:29:12.971Z,59.80
2017-08-02T03:31:41.231Z,59.80
2017-08-02T03:34:08.737Z,59.80
2017-08-02T03:36:36.194Z,59.80
2017-08-02T03:39:03.679Z,59.70
2017-08-02T03:41:31.157Z,59.80
2017-08-02T03:43:58.662Z,59.80
2017-08-02T03:46:26.118Z,59.80
2017-08-02T03:48:53.574Z,59.70
2017-08-02T03:51:21.096Z,59.60
2017-08-02T03:53:48.557Z,59.60
2017-08-02T03:56:16.021Z,59.70
2017-08-02T03:58:44.290Z,59.80
2017-08-02T04:01:11.751Z,59.80
2017-08-02T04:03:39.214Z,59.80
2017-08-02T04:06:07.462Z,60.70
2017-08-02T04:08:35.035Z,59.80
2017-08-02T04:11:02.486Z,59.80
2017-08-02T04:13:30.062Z,59.90
2017-08-02T04:15:57.541Z,59.90
2017-08-02T04:18:25.762Z,59.90
2017-08-02T04:20:53.243Z,59.90
2017-08-02T04:23:20.701Z,59.90
2017-08-02T04:25:48.178Z,59.90
2017-08-02T04:28:16.405Z,60.70
2017-08-02T04:30:43.894Z,60.00
2017-08-02T04:33:11.354Z,59.80
2017-08-02T04:35:38.821Z,59.90
2017-08-02T04:38:06.380Z,59.80
2017-08-02T04:40:33.829Z,59.90
2017-08-02T04:43:01.317Z,59.90
2017-08-02T04:45:28.786Z,59.80
2017-08-02T04:47:56.259Z,59.80
2017-08-02T04:50:23.743Z,59.90
2017-08-02T04:52:51.217Z,60.00
2017-08-02T04:55:18.687Z,60.00
2017-08-02T04:57:46.153Z,60.00
2017-08-02T05:00:13.693Z,60.00
2017-08-02T05:02:41.145Z,59.90
2017-08-02T05:05:08.623Z,59.90
2017-08-02T05:07:36.110Z,59.80
2017-08-02T05:10:03.590Z,59.80
2017-08-02T05:12:31.062Z,59.80
2017-08-02T05:14:58.530Z,59.70
2017-08-02T05:17:26.002Z,59.60
2017-08-02T05:19:53.479Z,59.60
2017-08-02T05:22:20.981Z,59.50
2017-08-02T05:24:48.441Z,59.50
2017-08-02T05:27:15.901Z,59.50
2017-08-02T05:29:43.417Z,59.40
2017-08-02T05:32:10.882Z,59.40
2017-08-02T05:34:38.357Z,59.40
2017-08-02T05:37:06.038Z,59.30
2017-08-02T05:39:33.497Z,59.20
2017-08-02T05:42:00.963Z,59.10
2017-08-02T05:44:28.437Z,59.00
2017-08-02T05:46:55.894Z,58.90
2017-08-02T05:49:23.372Z,58.90
2017-08-02T05:51:50.882Z,58.90
2017-08-02T05:54:18.339Z,58.90
2017-08-02T05:56:45.810Z,58.80
2017-08-02T05:59:13.300Z,59.30
2017-08-02T06:01:40.756Z,58.80
2017-08-02T06:04:08.259Z,58.70
2017-08-02T06:06:35.719Z,58.80
2017-08-02T06:09:03.177Z,59.00
2017-08-02T06:11:30.699Z,59.00
2017-08-02T06:13:58.155Z,59.00
2017-08-02T06:16:25.609Z,58.80
2017-08-02T06:18:53.087Z,58.90
2017-08-02T06:21:21.306Z,59.30
2017-08-02T06:23:48.787Z,58.70
2017-08-02T06:26:16.280Z,58.60
2017-08-02T06:28:43.799Z,58.70
2017-08-02T06:31:11.290Z,58.60
2017-08-02T06:33:38.765Z,58.60
2017-08-02T06:36:06.295Z,58.50
2017-08-02T06:38:33.747Z,58.40
2017-08-02T06:41:01.201Z,58.40
2017-08-02T06:43:28.706Z,58.40
2017-08-02T06:45:56.162Z,58.50
2017-08-02T06:48:24.427Z,58.50
2017-08-02T06:50:51.925Z,58.40
2017-08-02T06:53:19.387Z,58.40
2017-08-02T06:55:46.860Z,58.40
2017-08-02T06:58:14.347Z,58.40
2017-08-02T07:00:41.802Z,58.60
2017-08-02T07:03:09.278Z,58.70
2017-08-02T07:05:36.758Z,58.70
2017-08-02T07:08:04.229Z,58.80
2017-08-02T07:10:31.721Z,58.80
2017-08-02T07:12:59.212Z,58.80
2017-08-02T07:15:27.465Z,58.60
2017-08-02T07:17:54.919Z,58.60
2017-08-02T07:20:22.489Z,58.50
2017-08-02T07:22:49.975Z,58.40
2017-08-02T07:25:17.425Z,58.20
2017-08-02T07:27:44.881Z,58.10
2017-08-02T07:30:12.373Z,57.90
2017-08-02T07:32:39.825Z,57.90
2017-08-02T07:35:07.301Z,57.70
2017-08-02T07:37:34.807Z,57.60
2017-08-02T07:40:02.274Z,57.60
2017-08-02T07:42:29.724Z,57.40
2017-08-02T07:44:57.985Z,57.30
2017-08-02T07:47:25.482Z,57.30
2017-08-02T07:49:52.989Z,57.10
2017-08-02T07:52:20.474Z,57.00
2017-08-02T07:54:47.961Z,57.30
2017-08-02T07:57:15.422Z,56.30
2017-08-02T07:59:42.908Z,55.90
2017-08-02T08:02:10.362Z,55.80
2017-08-02T08:04:37.845Z,55.90
2017-08-02T08:07:05.304Z,55.70
2017-08-02T08:09:32.762Z,55.00
2017-08-02T08:12:00.243Z,54.40
2017-08-02T08:14:27.703Z,53.60
2017-08-02T08:16:55.941Z,52.80
2017-08-02T08:19:23.727Z,52.10
2017-08-02T08:21:51.211Z,51.90
2017-08-02T08:24:18.759Z,51.60
2017-08-02T08:26:46.305Z,51.60
2017-08-02T08:29:13.805Z,51.90
2017-08-02T08:31:41.278Z,51.10
2017-08-02T08:34:08.742Z,51.20
2017-08-02T08:36:36.226Z,51.10
2017-08-02T08:39:03.683Z,50.00
2017-08-02T08:41:31.154Z,49.70
2017-08-02T08:43:58.710Z,49.20
2017-08-02T08:46:27.335Z,48.70
2017-08-02T08:48:56.205Z,48.10
2017-08-02T08:51:25.214Z,48.30
2017-08-02T08:53:53.609Z,48.00
2017-08-02T08:56:22.917Z,47.80
2017-08-02T08:58:51.439Z,47.90
2017-08-02T09:01:19.516Z,47.90
2017-08-02T09:03:47.510Z,47.40
2017-08-02T09:06:15.449Z,45.90
2017-08-02T09:08:43.622Z,45.80
2017-08-02T09:11:11.505Z,45.50
2017-08-02T09:13:39.657Z,45.20
2017-08-02T09:16:08.329Z,44.50
2017-08-02T09:18:36.756Z,43.90
2017-08-02T09:21:04.291Z,43.90
2017-08-02T09:23:31.755Z,44.40
2017-08-02T09:25:59.257Z,44.00
2017-08-02T09:28:26.710Z,43.30
2017-08-02T09:30:54.258Z,43.80
2017-08-02T09:33:21.714Z,44.10
2017-08-02T09:35:49.182Z,43.70
2017-08-02T09:38:16.658Z,44.00
2017-08-02T09:40:44.105Z,43.60
2017-08-02T09:43:11.563Z,43.30
2017-08-02T09:45:39.029Z,42.50
2017-08-02T09:48:06.497Z,42.40
2017-08-02T09:50:34.159Z,42.20
2017-08-02T09:53:01.634Z,41.70
2017-08-02T09:55:29.085Z,41.30
2017-08-02T09:57:56.588Z,41.00
2017-08-02T10:00:24.049Z,41.10
2017-08-02T10:02:51.521Z,40.50
2017-08-02T10:05:18.999Z,40.30
2017-08-02T10:07:46.465Z,39.70
2017-08-02T10:10:13.958Z,40.00
2017-08-02T10:12:41.530Z,40.00
2017-08-02T10:15:09.037Z,39.70
2017-08-02T10:17:36.587Z,40.10
2017-08-02T10:20:04.170Z,39.60
2017-08-02T10:22:33.002Z,39.60
2017-08-02T10:25:00.596Z,40.60
2017-08-02T10:27:28.157Z,40.30
2017-08-02T10:29:59.806Z,40.10
2017-08-02T10:32:27.353Z,40.40
2017-08-02T10:34:54.896Z,39.90
2017-08-02T10:37:22.416Z,40.40
2017-08-02T10:39:49.931Z,40.60
2017-08-02T10:42:17.394Z,40.60
2017-08-02T10:44:44.873Z,40.40
2017-08-02T10:47:12.367Z,39.90
2017-08-02T10:49:39.897Z,39.60
2017-08-02T10:52:07.458Z,39.40
2017-08-02T10:54:34.942Z,39.70
2017-08-02T10:57:02.436Z,39.20
2017-08-02T10:59:29.954Z,39.00
2017-08-02T11:01:57.469Z,38.50
2017-08-02T11:04:24.994Z,37.70
2017-08-02T11:06:52.531Z,37.40
2017-08-02T11:09:20.041Z,37.20
2017-08-02T11:11:47.542Z,37.00
2017-08-02T11:14:15.110Z,36.60
2017-08-02T11:16:42.666Z,36.30
2017-08-02T11:19:10.186Z,36.00
2017-08-02T11:21:37.765Z,36.00
2017-08-02T11:24:05.274Z,35.60
2017-08-02T11:26:32.766Z,35.80
2017-08-02T11:31:51.892Z,35.60
2017-08-02T11:34:31.244Z,35.50
2017-08-02T11:39:40.355Z,35.60
2017-08-02T11:42:07.899Z,34.30
2017-08-02T11:44:35.425Z,33.70
2017-08-02T11:47:03.062Z,33.40
2017-08-02T11:49:30.648Z,33.00
2017-08-02T11:51:58.253Z,33.10
2017-08-02T11:54:25.778Z,33.50
2017-08-02T11:56:53.290Z,34.30
2017-08-02T11:59:20.816Z,34.20
2017-08-02T12:01:48.337Z,33.70
2017-08-02T12:04:15.843Z,32.70
2017-08-02T12:06:43.384Z,32.40
2017-08-02T12:09:11.028Z,32.40
2017-08-02T12:11:38.527Z,32.40
2017-08-02T12:14:06.089Z,32.30
2017-08-02T12:16:33.684Z,32.40
2017-08-02T12:19:01.229Z,32.60
2017-08-02T12:21:28.871Z,32.20
2017-08-02T12:23:56.377Z,33.10
2017-08-02T12:26:23.993Z,32.60
2017-08-02T12:28:51.526Z,33.30
2017-08-02T12:31:19.043Z,33.10
2017-08-02T12:33:46.586Z,33.10
2017-08-02T12:36:14.067Z,32.80
2017-08-02T12:38:41.578Z,32.00
2017-08-02T12:41:09.063Z,31.70
2017-08-02T12:43:36.602Z,32.00
2017-08-02T12:46:04.947Z,32.20
2017-08-02T12:48:32.459Z,32.50
2017-08-02T12:50:59.997Z,32.20
2017-08-02T12:53:27.499Z,32.30
2017-08-02T12:55:55.040Z,32.90
2017-08-02T12:58:22.560Z,33.00
2017-08-02T13:00:50.051Z,33.00
2017-08-02T13:03:17.561Z,32.80
2017-08-02T13:05:45.138Z,33.00
2017-08-02T13:08:12.786Z,33.00
2017-08-02T13:10:40.282Z,33.10
2017-08-02T13:13:07.756Z,32.80
2017-08-02T13:15:35.274Z,32.60
2017-08-02T13:18:03.094Z,32.60
2017-08-02T13:20:30.592Z,32.40
2017-08-02T13:22:58.176Z,32.60
2017-08-02T13:25:25.750Z,32.10
2017-08-02T13:27:53.242Z,31.70
2017-08-02T13:30:20.758Z,31.60
2017-08-02T13:32:48.283Z,31.20
2017-08-02T13:35:15.784Z,31.60
2017-08-02T13:37:43.343Z,31.50
2017-08-02T13:40:10.874Z,31.50
2017-08-02T13:42:38.370Z,31.10
2017-08-02T13:45:05.899Z,31.10
2017-08-02T13:47:33.393Z,32.10
2017-08-02T13:50:00.951Z,31.60
2017-08-02T13:52:28.451Z,32.00
2017-08-02T13:54:55.958Z,32.40
2017-08-02T13:57:23.475Z,32.60
2017-08-02T13:59:51.038Z,32.90
2017-08-02T14:02:18.548Z,33.30
2017-08-02T14:04:46.005Z,33.40
2017-08-02T14:07:13.516Z,33.60
2017-08-02T14:09:41.009Z,33.70
2017-08-02T14:12:08.545Z,33.80
2017-08-02T14:14:36.001Z,34.10
2017-08-02T14:17:03.496Z,34.30
2017-08-02T14:19:31.080Z,34.60
2017-08-02T14:21:58.546Z,34.90
2017-08-02T14:24:26.056Z,35.90
2017-08-02T14:26:53.549Z,35.70
2017-08-02T14:29:21.057Z,36.10
2017-08-02T14:31:48.526Z,36.40
2017-08-02T14:34:16.054Z,36.60
2017-08-02T14:36:43.593Z,36.90
2017-08-02T14:39:11.077Z,37.20
2017-08-02T14:41:38.571Z,38.00
2017-08-02T14:44:06.149Z,37.90
2017-08-02T14:46:33.723Z,37.90
2017-08-02T14:49:01.264Z,38.60
2017-08-02T14:51:28.757Z,38.80
2017-08-02T14:53:56.218Z,39.20
2017-08-02T14:56:23.730Z,39.70
2017-08-02T14:59:06.756Z,39.80
2017-08-02T15:04:45.053Z,40.10
2017-08-02T15:10:06.630Z,40.60
2017-08-02T15:12:34.145Z,40.50
2017-08-02T15:15:01.656Z,40.70
2017-08-02T15:17:29.150Z,40.80
2017-08-02T15:19:56.686Z,40.70
2017-08-02T15:22:24.166Z,41.00
2017-08-02T15:24:51.676Z,41.00
2017-08-02T15:27:19.182Z,41.10
2017-08-02T15:29:46.653Z,41.50
2017-08-02T15:32:14.111Z,41.90
2017-08-02T15:34:41.610Z,42.30
2017-08-02T15:37:09.075Z,42.60
2017-08-02T15:39:36.549Z,43.40
2017-08-02T15:42:04.018Z,43.10
2017-08-02T15:44:31.514Z,43.30
2017-08-02T15:46:58.962Z,43.50
2017-08-02T15:49:26.431Z,43.70
2017-08-02T15:51:53.922Z,43.90
2017-08-02T15:54:21.387Z,44.00
2017-08-02T15:56:48.839Z,44.00
2017-08-02T15:59:16.313Z,44.20
2017-08-02T16:01:43.777Z,44.10
2017-08-02T16:04:11.266Z,44.10
2017-08-02T16:06:38.733Z,44.20
2017-08-02T16:09:06.219Z,44.20
2017-08-02T16:11:33.672Z,44.30
2017-08-02T16:14:01.144Z,44.90
2017-08-02T16:16:28.616Z,45.80
2017-08-02T16:18:56.114Z,46.20
2017-08-02T16:21:23.568Z,46.60
2017-08-02T16:23:51.036Z,46.50
2017-08-02T16:26:18.522Z,46.50
2017-08-02T16:28:45.979Z,46.90
2017-08-02T16:31:13.472Z,47.10
2017-08-02T16:33:40.930Z,47.40
2017-08-02T16:36:08.389Z,47.70
2017-08-02T16:38:35.930Z,48.00
2017-08-02T16:41:03.385Z,48.20
2017-08-02T16:43:30.837Z,48.40
2017-08-02T16:45:58.346Z,49.00
2017-08-02T16:48:25.822Z,49.30
2017-08-02T16:50:53.299Z,49.50
2017-08-02T16:53:20.742Z,49.40
2017-08-02T16:55:48.237Z,49.60
2017-08-02T16:58:15.754Z,49.60
2017-08-02T17:00:43.219Z,49.70
2017-08-02T17:03:10.661Z,49.90
2017-08-02T17:05:38.236Z,50.10
2017-08-02T17:08:05.698Z,50.90
2017-08-02T17:10:33.523Z,51.10
2017-08-02T17:13:01.262Z,51.20
2017-08-02T17:15:29.140Z,51.40
2017-08-02T17:17:56.592Z,51.50
2017-08-02T17:20:24.277Z,51.20
2017-08-02T17:22:52.077Z,51.20
2017-08-02T17:25:20.187Z,51.10
2017-08-02T17:27:48.023Z,51.20
2017-08-02T17:30:15.906Z,51.60
2017-08-02T17:32:43.467Z,51.30
2017-08-02T17:35:11.333Z,51.40
2017-08-02T17:37:39.344Z,51.60
2017-08-02T17:40:07.508Z,51.50
2017-08-02T17:42:34.948Z,51.10
2017-08-02T17:45:02.428Z,50.90
2017-08-02T17:47:29.878Z,51.00
2017-08-02T17:49:57.370Z,50.70
2017-08-02T17:52:24.823Z,51.00
2017-08-02T17:54:52.312Z,51.90
2017-08-02T17:57:19.781Z,51.60
2017-08-02T17:59:47.309Z,51.80
2017-08-02T18:02:14.766Z,51.90
2017-08-02T18:04:42.301Z,52.00
2017-08-02T18:07:09.802Z,52.30
2017-08-02T18:09:37.259Z,52.60
2017-08-02T18:12:05.566Z,53.10
2017-08-02T18:14:33.022Z,52.90
2017-08-02T18:17:00.485Z,52.90
2017-08-02T18:19:27.993Z,53.00
2017-08-02T18:21:55.486Z,53.20
2017-08-02T18:24:22.986Z,53.30
2017-08-02T18:26:50.491Z,53.50
2017-08-02T18:29:17.982Z,53.70
2017-08-02T18:31:45.429Z,54.00
2017-08-02T18:34:13.276Z,54.00
2017-08-02T18:36:40.729Z,53.80
2017-08-02T18:39:08.181Z,53.60
2017-08-02T18:41:35.797Z,53.70
2017-08-02T18:44:03.476Z,53.70
2017-08-02T18:46:31.628Z,53.70
2017-08-02T18:48:59.326Z,54.00
2017-08-02T18:51:27.034Z,54.10
2017-08-02T18:53:54.733Z,54.10
2017-08-02T18:56:22.194Z,54.20
2017-08-02T18:58:49.688Z,54.10
2017-08-02T19:01:17.466Z,54.10
2017-08-02T19:03:45.285Z,54.00
2017-08-02T19:06:13.169Z,54.20
2017-08-02T19:08:40.685Z,54.20
2017-08-02T19:11:08.674Z,54.30
2017-08-02T19:13:36.413Z,54.40
2017-08-02T19:16:04.830Z,54.20
2017-08-02T19:18:32.901Z,54.10
2017-08-02T19:21:00.387Z,53.90
2017-08-02T19:23:27.857Z,54.10
2017-08-02T19:25:55.301Z,54.20
2017-08-02T19:28:22.807Z,54.20
2017-08-02T19:30:50.318Z,54.40
2017-08-02T19:33:17.800Z,54.50
2017-08-02T19:35:46.133Z,54.10
2017-08-02T19:38:14.289Z,54.10
2017-08-02T19:40:41.869Z,54.20
2017-08-02T19:43:09.372Z,54.30
2017-08-02T19:45:37.102Z,54.30
2017-08-02T19:48:04.679Z,54.10
2017-08-02T19:50:32.373Z,54.40
2017-08-02T19:53:00.021Z,54.30
2017-08-02T19:55:27.588Z,54.30
2017-08-02T19:57:55.153Z,54.50
2017-08-02T20:00:22.625Z,54.50
2017-08-02T20:02:50.105Z,54.30
2017-08-02T20:05:17.609Z,54.30
2017-08-02T20:07:46.242Z,54.40
2017-08-02T20:10:13.689Z,54.40
2017-08-02T20:12:41.192Z,55.20
2017-08-02T20:15:08.642Z,54.60
2017-08-02T20:17:36.094Z,54.80
2017-08-02T20:20:03.574Z,55.20
2017-08-02T20:22:31.081Z,55.50
2017-08-02T20:24:58.520Z,55.60
2017-08-02T20:27:25.995Z,55.40
2017-08-02T20:29:53.515Z,55.80
2017-08-02T20:32:20.985Z,56.00
2017-08-02T20:34:48.445Z,56.30
2017-08-02T20:37:15.934Z,56.30
2017-08-02T20:39:43.422Z,56.50
2017-08-02T20:42:10.917Z,56.60
2017-08-02T20:44:38.385Z,56.70
2017-08-02T20:47:05.858Z,57.00
2017-08-02T20:49:33.342Z,57.00
2017-08-02T20:52:00.788Z,57.20
2017-08-02T20:54:28.286Z,57.30
2017-08-02T20:56:55.757Z,57.10
2017-08-02T20:59:23.297Z,57.50
2017-08-02T21:01:50.799Z,57.80
2017-08-02T21:04:18.249Z,57.90
2017-08-02T21:06:45.733Z,58.10
2017-08-02T21:09:13.199Z,58.20
2017-08-02T21:11:40.649Z,57.90
2017-08-02T21:14:08.124Z,58.50
2017-08-02T21:16:36.381Z,58.80
2017-08-02T21:19:03.904Z,58.80
2017-08-02T21:21:31.358Z,59.00
2017-08-02T21:23:58.836Z,58.90
2017-08-02T21:26:26.333Z,58.90
2017-08-02T21:28:53.808Z,59.00
2017-08-02T21:31:21.271Z,59.10
2017-08-02T21:33:48.754Z,59.10
2017-08-02T21:36:16.225Z,59.20
2017-08-02T21:38:43.717Z,59.20
2017-08-02T21:41:11.174Z,59.10
2017-08-02T21:43:38.645Z,59.20
2017-08-02T21:46:06.135Z,59.50
2017-08-02T21:48:33.597Z,59.50
2017-08-02T21:51:01.086Z,59.60
2017-08-02T21:53:28.546Z,59.70
2017-08-02T21:55:56.006Z,59.80
2017-08-02T21:58:23.517Z,59.90
2017-08-02T22:00:51.192Z,60.00
2017-08-02T22:03:18.658Z,60.00
2017-08-02T22:05:46.153Z,60.20
2017-08-02T22:08:13.590Z,60.50
2017-08-02T22:10:41.087Z,60.50
2017-08-02T22:13:08.556Z,60.40
2017-08-02T22:15:36.067Z,60.70
2017-08-02T22:18:03.527Z,60.70
2017-08-02T22:20:31.013Z,60.60
2017-08-02T22:22:59.263Z,60.70
2017-08-02T22:25:26.718Z,60.70
2017-08-02T22:27:54.170Z,60.80
2017-08-02T22:30:21.649Z,60.90
2017-08-02T22:32:49.123Z,61.20
2017-08-02T22:35:17.415Z,61.60
2017-08-02T22:37:44.875Z,61.60
2017-08-02T22:40:12.371Z,61.60
2017-08-02T22:42:39.858Z,61.90
2017-08-02T22:45:07.334Z,62.10
2017-08-02T22:47:34.837Z,62.10
2017-08-02T22:50:02.322Z,62.30
2017-08-02T22:52:29.787Z,62.40
2017-08-02T22:54:57.269Z,62.40
2017-08-02T22:57:25.485Z,62.50
2017-08-02T22:59:52.949Z,62.50
2017-08-02T23:02:20.432Z,62.50
2017-08-02T23:04:47.882Z,62.30
2017-08-02T23:07:15.346Z,62.50
2017-08-02T23:09:42.918Z,62.50
2017-08-02T23:12:10.382Z,62.90
2017-08-02T23:14:37.844Z,63.00
2017-08-02T23:17:05.351Z,63.20
2017-08-02T23:19:32.831Z,63.50
2017-08-02T23:22:00.287Z,63.60
2017-08-02T23:24:27.761Z,63.80
2017-08-02T23:26:55.268Z,63.80
2017-08-02T23:29:22.718Z,63.80
2017-08-02T23:31:50.206Z,63.90
2017-08-02T23:34:17.671Z,64.20
2017-08-02T23:36:45.138Z,64.20
2017-08-02T23:39:12.626Z,64.30
2017-08-02T23:41:40.098Z,64.30
2017-08-02T23:44:07.557Z,64.40
2017-08-02T23:46:35.044Z,64.60
2017-08-02T23:49:02.512Z,64.90
2017-08-02T23:51:29.971Z,65.00
2017-08-02T23:53:57.457Z,65.00
2017-08-02T23:56:24.911Z,65.50
2017-08-02T23:58:52.401Z,65.70
